createdAt,value
2022-11-19T00:01:39.945Z,7.40
2022-11-19T00:04:10.645Z,6.55
2022-11-19T00:06:42.116Z,7.22
2022-11-19T00:09:15.288Z,6.20
2022-11-19T00:12:13.969Z,5.90
2022-11-19T00:14:44.467Z,6.05
2022-11-19T00:17:18.597Z,6.22
2022-11-19T00:19:48.763Z,7.43
2022-11-19T00:22:24.250Z,5.60
2022-11-19T00:24:54.793Z,6.53
2022-11-19T00:27:26.477Z,6.95
2022-11-19T00:29:56.293Z,6.80
2022-11-19T00:32:26.105Z,5.40
2022-11-19T00:34:57.451Z,8.68
2022-11-19T00:37:30.362Z,8.43
2022-11-19T00:40:03.814Z,8.38
2022-11-19T00:42:36.024Z,8.60
2022-11-19T00:45:07.875Z,8.23
2022-11-19T00:47:38.604Z,8.40
2022-11-19T00:50:12.322Z,9.95
2022-11-19T00:52:45.053Z,8.48
2022-11-19T00:55:16.435Z,7.47
2022-11-19T00:57:45.256Z,8.68
2022-11-19T01:00:15.549Z,7.85
2022-11-19T01:02:45.202Z,8.40
2022-11-19T01:05:14.095Z,9.35
2022-11-19T01:07:44.057Z,9.82
2022-11-19T01:10:12.745Z,10.07
2022-11-19T01:13:02.279Z,9.10
2022-11-19T01:15:30.928Z,9.55
2022-11-19T01:17:59.542Z,9.85
2022-11-19T01:20:28.236Z,7.40
2022-11-19T01:22:58.327Z,8.95
2022-11-19T01:25:26.933Z,9.70
2022-11-19T01:27:56.015Z,10.02
2022-11-19T01:30:24.718Z,10.98
2022-11-19T01:32:53.361Z,10.52
2022-11-19T01:35:21.980Z,10.70
2022-11-19T01:37:51.312Z,9.70
2022-11-19T01:40:21.435Z,9.80
2022-11-19T01:42:54.017Z,11.07
2022-11-19T01:45:35.064Z,9.85
2022-11-19T01:48:11.170Z,9.65
2022-11-19T01:50:45.253Z,11.75
2022-11-19T01:53:15.626Z,8.15
2022-11-19T01:55:47.983Z,7.38
2022-11-19T01:58:22.397Z,9.52
2022-11-19T02:00:51.530Z,8.48
2022-11-19T02:03:20.677Z,7.20
2022-11-19T02:05:50.706Z,7.10
2022-11-19T02:08:42.502Z,6.47
2022-11-19T02:12:14.147Z,7.32
2022-11-19T02:15:14.884Z,5.70
2022-11-19T02:18:07.903Z,8.55
2022-11-19T02:21:06.438Z,6.07
2022-11-19T02:24:19.607Z,6.47
2022-11-19T02:27:46.826Z,6.63
2022-11-19T02:30:18.403Z,5.95
2022-11-19T02:32:59.995Z,6.68
2022-11-19T02:35:51.162Z,6.15
2022-11-19T02:38:32.386Z,5.55
2022-11-19T02:41:38.763Z,6.55
2022-11-19T02:44:37.112Z,7.32
2022-11-19T02:47:12.748Z,6.00
2022-11-19T02:49:46.142Z,7.70
2022-11-19T02:52:17.938Z,6.65
2022-11-19T02:54:46.908Z,6.00
2022-11-19T02:57:16.022Z,5.47
2022-11-19T03:00:07.711Z,6.78
2022-11-19T03:03:01.608Z,5.90
2022-11-19T03:05:36.072Z,6.35
2022-11-19T03:08:05.400Z,6.28
2022-11-19T03:10:44.256Z,5.80
2022-11-19T03:13:38.671Z,6.45
2022-11-19T03:16:32.824Z,5.53
2022-11-19T03:19:07.005Z,5.57
2022-11-19T03:22:37.198Z,5.82
2022-11-19T03:25:11.043Z,5.85
2022-11-19T03:27:43.773Z,6.30
2022-11-19T03:30:15.197Z,5.60
2022-11-19T03:32:51.948Z,5.28
2022-11-19T03:35:30.454Z,5.43
2022-11-19T03:38:05.387Z,5.60
2022-11-19T03:40:36.746Z,7.97
2022-11-19T03:43:10.018Z,5.72
2022-11-19T03:45:46.136Z,7.50
2022-11-19T03:48:18.156Z,4.72
2022-11-19T03:50:55.729Z,8.05
2022-11-19T03:53:24.811Z,6.75
2022-11-19T03:56:00.892Z,8.88
2022-11-19T03:58:30.105Z,6.85
2022-11-19T04:00:58.768Z,6.45
2022-11-19T04:03:27.410Z,7.95
2022-11-19T04:05:57.597Z,6.40
2022-11-19T04:08:26.420Z,5.97
2022-11-19T04:10:55.358Z,5.63
2022-11-19T04:13:23.939Z,9.00
2022-11-19T04:15:53.230Z,7.22
2022-11-19T04:18:21.912Z,7.68
2022-11-19T04:20:50.555Z,7.20
2022-11-19T04:23:20.551Z,7.47
2022-11-19T04:25:49.197Z,6.32
2022-11-19T04:28:17.859Z,6.90
2022-11-19T04:30:46.495Z,7.72
2022-11-19T04:33:15.141Z,7.65
2022-11-19T04:35:46.456Z,6.85
2022-11-19T04:38:15.030Z,6.53
2022-11-19T04:40:45.100Z,6.63
2022-11-19T04:43:13.706Z,6.13
2022-11-19T04:45:42.458Z,6.30
2022-11-19T04:48:11.147Z,6.78
2022-11-19T04:50:39.766Z,5.85
2022-11-19T04:53:08.365Z,7.13
2022-11-19T04:55:36.943Z,6.75
2022-11-19T04:58:07.079Z,5.70
2022-11-19T05:00:35.849Z,5.82
2022-11-19T05:03:04.585Z,8.20
2022-11-19T05:05:33.190Z,5.68
2022-11-19T05:08:01.859Z,7.38
2022-11-19T05:10:30.475Z,8.18
2022-11-19T05:12:59.144Z,6.10
2022-11-19T05:15:29.160Z,6.97
2022-11-19T05:17:57.745Z,6.18
2022-11-19T05:20:26.418Z,7.63
2022-11-19T05:22:55.869Z,6.13
2022-11-19T05:25:24.610Z,7.22
2022-11-19T05:27:53.502Z,7.30
2022-11-19T05:30:22.255Z,6.53
2022-11-19T05:32:52.234Z,7.63
2022-11-19T05:35:21.060Z,6.97
2022-11-19T05:37:50.750Z,6.97
2022-11-19T05:40:20.042Z,6.00
2022-11-19T05:42:48.619Z,5.60
2022-11-19T05:45:17.491Z,4.88
2022-11-19T05:47:48.761Z,6.85
2022-11-19T05:50:19.221Z,7.68
2022-11-19T05:52:52.041Z,7.07
2022-11-19T05:55:20.873Z,6.32
2022-11-19T05:57:49.832Z,5.63
2022-11-19T06:00:19.397Z,7.90
2022-11-19T06:02:48.279Z,6.65
2022-11-19T06:05:18.667Z,6.53
2022-11-19T06:07:47.366Z,4.70
2022-11-19T06:10:16.102Z,6.38
2022-11-19T06:12:45.969Z,8.23
2022-11-19T06:15:15.682Z,6.60
2022-11-19T06:17:44.347Z,5.10
2022-11-19T06:20:13.307Z,6.43
2022-11-19T06:22:43.345Z,6.30
2022-11-19T06:25:11.938Z,5.60
2022-11-19T06:27:40.614Z,6.32
2022-11-19T06:30:10.900Z,6.38
2022-11-19T06:32:39.627Z,5.00
2022-11-19T06:35:09.257Z,5.07
2022-11-19T06:37:38.131Z,4.00
2022-11-19T06:40:10.189Z,6.20
2022-11-19T06:42:38.826Z,5.43
2022-11-19T06:45:11.472Z,5.68
2022-11-19T06:47:41.935Z,5.22
2022-11-19T06:50:12.831Z,4.60
2022-11-19T06:52:41.422Z,4.63
2022-11-19T06:55:11.756Z,5.22
2022-11-19T06:57:40.311Z,4.45
2022-11-19T07:00:10.536Z,5.13
2022-11-19T07:02:39.372Z,5.88
2022-11-19T07:05:08.970Z,4.85
2022-11-19T07:08:07.092Z,5.07
2022-11-19T07:10:37.577Z,4.32
2022-11-19T07:13:06.440Z,7.20
2022-11-19T07:15:35.359Z,4.35
2022-11-19T07:18:04.354Z,6.70
2022-11-19T07:20:33.398Z,7.00
2022-11-19T07:23:02.277Z,6.00
2022-11-19T07:25:31.124Z,5.95
2022-11-19T07:28:01.404Z,6.65
2022-11-19T07:30:31.420Z,4.40
2022-11-19T07:33:00.431Z,5.18
2022-11-19T07:35:29.350Z,7.60
2022-11-19T07:37:58.416Z,6.93
2022-11-19T07:40:27.403Z,6.10
2022-11-19T07:42:55.277Z,7.15
2022-11-19T07:45:25.498Z,5.57
2022-11-19T07:47:54.721Z,4.18
2022-11-19T07:50:23.651Z,7.45
2022-11-19T07:52:52.469Z,5.85
2022-11-19T07:55:21.454Z,5.88
2022-11-19T07:57:50.809Z,5.03
2022-11-19T08:00:20.311Z,5.43
2022-11-19T08:02:50.959Z,4.53
2022-11-19T08:05:19.969Z,5.22
2022-11-19T08:07:49.016Z,5.32
2022-11-19T08:10:18.046Z,4.70
2022-11-19T08:13:03.174Z,5.10
2022-11-19T08:15:32.596Z,5.15
2022-11-19T08:18:13.586Z,6.90
2022-11-19T08:20:43.320Z,5.85
2022-11-19T08:23:13.005Z,5.72
2022-11-19T08:25:44.971Z,4.88
2022-11-19T08:28:14.154Z,6.50
2022-11-19T08:30:42.986Z,7.50
2022-11-19T08:33:13.359Z,6.75
2022-11-19T08:35:43.088Z,7.80
2022-11-19T08:38:12.163Z,4.15
2022-11-19T08:40:41.078Z,4.85
2022-11-19T08:43:08.907Z,4.85
2022-11-19T08:45:42.580Z,5.40
2022-11-19T08:48:15.349Z,4.05
2022-11-19T08:50:44.408Z,4.38
2022-11-19T08:53:13.377Z,5.63
2022-11-19T08:55:42.326Z,5.00
2022-11-19T08:58:12.719Z,3.75
2022-11-19T09:00:41.687Z,4.70
2022-11-19T09:03:12.026Z,4.20
2022-11-19T09:05:40.922Z,4.50
2022-11-19T09:08:10.124Z,5.13
2022-11-19T09:10:39.574Z,4.28
2022-11-19T09:13:08.767Z,3.72
2022-11-19T09:15:37.783Z,5.20
2022-11-19T09:18:06.838Z,4.53
2022-11-19T09:20:37.266Z,4.70
2022-11-19T09:23:06.111Z,5.50
2022-11-19T09:25:36.419Z,4.78
2022-11-19T09:28:05.436Z,4.20
2022-11-19T09:30:34.372Z,3.70
2022-11-19T09:33:03.233Z,5.28
2022-11-19T09:35:32.215Z,3.85
2022-11-19T09:38:02.436Z,4.45
2022-11-19T09:40:31.342Z,4.55
2022-11-19T09:43:14.076Z,4.75
2022-11-19T09:45:55.638Z,5.47
2022-11-19T09:48:33.891Z,3.60
2022-11-19T09:51:06.732Z,5.22
2022-11-19T09:53:43.867Z,3.40
2022-11-19T09:56:17.929Z,3.80
2022-11-19T09:58:47.525Z,4.10
2022-11-19T10:01:18.034Z,3.60
2022-11-19T10:03:50.002Z,4.65
2022-11-19T10:06:28.837Z,2.63
2022-11-19T10:09:20.869Z,3.45
2022-11-19T10:12:04.392Z,4.40
2022-11-19T10:14:58.306Z,3.20
2022-11-19T10:17:40.304Z,3.25
2022-11-19T10:20:21.820Z,3.10
2022-11-19T10:23:00.083Z,3.55
2022-11-19T10:25:33.692Z,3.90
2022-11-19T10:28:10.978Z,3.33
2022-11-19T10:30:42.008Z,2.70
2022-11-19T10:33:17.872Z,2.95
2022-11-19T10:35:49.978Z,4.03
2022-11-19T10:38:23.935Z,3.20
2022-11-19T10:40:58.730Z,4.32
2022-11-19T10:43:33.378Z,4.65
2022-11-19T10:46:04.962Z,3.20
2022-11-19T10:48:42.688Z,2.80
2022-11-19T10:51:22.848Z,4.60
2022-11-19T10:53:53.555Z,3.03
2022-11-19T10:56:26.014Z,4.28
2022-11-19T10:58:58.691Z,4.38
2022-11-19T11:01:31.322Z,3.25
2022-11-19T11:04:08.463Z,3.10
2022-11-19T11:06:53.703Z,4.07
2022-11-19T11:09:41.112Z,3.30
2022-11-19T11:12:35.718Z,4.05
2022-11-19T11:15:16.148Z,4.15
2022-11-19T11:17:47.634Z,3.28
2022-11-19T11:20:27.252Z,4.22
2022-11-19T11:23:07.479Z,3.17
2022-11-19T11:25:36.549Z,4.10
2022-11-19T11:28:09.459Z,3.38
2022-11-19T11:30:38.266Z,5.05
2022-11-19T11:33:33.153Z,4.40
2022-11-19T11:36:07.264Z,4.95
2022-11-19T11:38:43.886Z,3.55
2022-11-19T11:42:04.204Z,3.63
2022-11-19T11:44:16.976Z,3.88
2022-11-19T11:46:50.170Z,5.55
2022-11-19T11:49:31.071Z,3.60
2022-11-19T11:52:22.902Z,3.60
2022-11-19T11:54:58.577Z,4.15
2022-11-19T11:57:30.834Z,4.13
2022-11-19T12:00:01.851Z,3.78
2022-11-19T12:02:36.209Z,4.03
2022-11-19T12:05:07.988Z,4.25
2022-11-19T12:08:04.561Z,3.72
2022-11-19T12:10:46.583Z,5.55
2022-11-19T12:13:54.436Z,3.83
2022-11-19T12:16:45.328Z,3.65
2022-11-19T12:19:38.219Z,4.43
2022-11-19T12:22:23.132Z,5.30
2022-11-19T12:25:28.360Z,4.63
2022-11-19T12:28:27.002Z,4.85
2022-11-19T12:31:13.301Z,4.50
2022-11-19T12:34:07.379Z,4.88
2022-11-19T12:36:49.165Z,4.82
2022-11-19T12:39:39.332Z,5.40
2022-11-19T12:42:35.015Z,4.72
2022-11-19T12:45:18.738Z,4.63
2022-11-19T12:48:23.204Z,4.22
2022-11-19T12:51:04.428Z,4.85
2022-11-19T12:54:16.389Z,4.43
2022-11-19T12:57:02.074Z,4.47
2022-11-19T12:59:51.981Z,5.95
2022-11-19T13:02:30.193Z,5.90
2022-11-19T13:05:11.929Z,5.00
2022-11-19T13:07:51.596Z,4.07
2022-11-19T13:10:26.609Z,4.13
2022-11-19T13:12:59.397Z,5.22
2022-11-19T13:15:36.029Z,3.95
2022-11-19T13:18:12.268Z,4.47
2022-11-19T13:20:49.385Z,5.05
2022-11-19T13:23:27.707Z,5.20
2022-11-19T13:26:03.402Z,4.93
2022-11-19T13:28:40.641Z,5.32
2022-11-19T13:31:18.024Z,4.40
2022-11-19T13:33:55.577Z,5.07
2022-11-19T13:36:34.392Z,4.00
2022-11-19T13:39:16.100Z,4.78
2022-11-19T13:42:08.931Z,4.40
2022-11-19T13:44:42.253Z,4.20
2022-11-19T13:47:20.418Z,5.97
2022-11-19T13:49:56.870Z,6.25
2022-11-19T13:52:34.192Z,6.97
2022-11-19T13:55:05.626Z,5.55
2022-11-19T13:57:42.097Z,5.90
2022-11-19T14:00:26.072Z,4.07
2022-11-19T14:03:28.707Z,4.45
2022-11-19T14:06:41.836Z,6.85
2022-11-19T14:09:29.467Z,5.70
2022-11-19T14:12:32.880Z,5.85
2022-11-19T14:15:58.499Z,6.75
2022-11-19T14:18:54.291Z,4.85
2022-11-19T14:22:01.537Z,6.75
2022-11-19T14:25:15.813Z,4.82
2022-11-19T14:27:46.481Z,6.65
2022-11-19T14:30:19.307Z,7.20
2022-11-19T14:32:52.468Z,4.97
2022-11-19T14:35:40.629Z,5.18
2022-11-19T14:38:39.130Z,5.97
2022-11-19T14:41:33.742Z,5.65
2022-11-19T14:44:39.512Z,5.47
2022-11-19T14:47:37.216Z,6.68
2022-11-19T14:50:10.907Z,6.30
2022-11-19T14:52:53.467Z,7.95
2022-11-19T14:55:25.294Z,6.35
2022-11-19T14:58:03.502Z,6.63
2022-11-19T15:00:38.048Z,7.90
2022-11-19T15:03:16.120Z,8.30
2022-11-19T15:05:47.767Z,6.53
2022-11-19T15:08:49.720Z,7.82
2022-11-19T15:11:19.163Z,7.13
2022-11-19T15:13:48.803Z,7.05
2022-11-19T15:16:23.214Z,6.70
2022-11-19T15:19:28.668Z,6.07
2022-11-19T15:22:46.559Z,6.25
2022-11-19T15:25:45.459Z,6.10
2022-11-19T15:28:42.709Z,6.85
2022-11-19T15:31:37.109Z,6.15
2022-11-19T15:34:49.325Z,6.22
2022-11-19T15:37:31.346Z,6.53
2022-11-19T15:40:01.181Z,7.32
2022-11-19T15:42:35.942Z,5.80
2022-11-19T15:45:14.175Z,5.80
2022-11-19T15:47:52.414Z,6.95
2022-11-19T15:50:25.422Z,6.70
2022-11-19T15:53:01.845Z,6.63
2022-11-19T15:55:32.737Z,6.38
2022-11-19T15:58:14.752Z,6.30
2022-11-19T16:00:47.564Z,4.90
2022-11-19T16:03:18.184Z,7.35
2022-11-19T16:06:02.937Z,5.65
2022-11-19T16:08:32.403Z,5.90
2022-11-19T16:11:20.854Z,5.30
2022-11-19T16:14:11.045Z,6.10
2022-11-19T16:16:58.394Z,6.03
2022-11-19T16:19:28.451Z,6.68
2022-11-19T16:22:02.645Z,5.97
2022-11-19T16:25:01.686Z,6.13
2022-11-19T16:27:31.266Z,7.05
2022-11-19T16:30:00.188Z,6.80
2022-11-19T16:32:29.562Z,7.20
2022-11-19T16:35:20.630Z,7.07
2022-11-19T16:37:50.339Z,5.85
2022-11-19T16:40:20.639Z,8.00
2022-11-19T16:42:53.894Z,5.30
2022-11-19T16:45:26.573Z,6.53
2022-11-19T16:47:57.951Z,6.50
2022-11-19T16:50:32.800Z,6.45
2022-11-19T16:53:02.940Z,6.15
2022-11-19T16:55:44.165Z,5.50
2022-11-19T16:58:19.964Z,5.85
2022-11-19T17:00:54.405Z,6.88
2022-11-19T17:03:37.050Z,5.93
2022-11-19T17:06:10.189Z,6.18
2022-11-19T17:08:59.409Z,6.88
2022-11-19T17:12:07.233Z,7.10
2022-11-19T17:14:51.694Z,6.65
2022-11-19T17:17:45.884Z,7.03
2022-11-19T17:21:01.721Z,6.22
2022-11-19T17:23:36.516Z,7.65
2022-11-19T17:26:09.483Z,7.25
2022-11-19T17:28:45.221Z,6.65
2022-11-19T17:31:19.786Z,6.68
2022-11-19T17:33:54.205Z,7.85
2022-11-19T17:36:25.855Z,9.23
2022-11-19T17:38:55.876Z,7.78
2022-11-19T17:41:45.322Z,7.30
2022-11-19T17:44:34.830Z,8.85
2022-11-19T17:47:07.381Z,8.23
2022-11-19T17:49:47.658Z,6.68
2022-11-19T17:52:24.426Z,7.65
2022-11-19T17:54:58.267Z,6.85
2022-11-19T17:57:26.874Z,6.88
2022-11-19T17:59:55.492Z,10.00
2022-11-19T18:02:24.167Z,8.25
2022-11-19T18:04:53.888Z,7.10
2022-11-19T18:07:22.699Z,8.07
2022-11-19T18:09:51.375Z,9.00
2022-11-19T18:12:22.012Z,9.30
2022-11-19T18:14:50.711Z,8.85
2022-11-19T18:17:19.310Z,7.65
2022-11-19T18:19:48.687Z,8.02
2022-11-19T18:22:21.335Z,10.25
2022-11-19T18:24:52.609Z,8.02
2022-11-19T18:27:22.603Z,6.95
2022-11-19T18:29:51.252Z,8.00
2022-11-19T18:32:20.194Z,7.40
2022-11-19T18:34:49.072Z,7.80
2022-11-19T18:37:17.941Z,8.60
2022-11-19T18:39:46.936Z,8.07
2022-11-19T18:42:15.781Z,8.88
2022-11-19T18:44:45.112Z,7.78
2022-11-19T18:47:16.279Z,7.18
2022-11-19T18:49:45.322Z,8.93
2022-11-19T18:52:15.722Z,9.10
2022-11-19T18:54:44.757Z,6.75
2022-11-19T18:57:14.335Z,6.90
2022-11-19T18:59:43.867Z,7.53
2022-11-19T19:02:15.460Z,7.90
2022-11-19T19:04:50.681Z,6.75
2022-11-19T19:07:21.061Z,8.73
2022-11-19T19:09:50.741Z,5.43
2022-11-19T19:12:19.273Z,5.72
2022-11-19T19:14:53.411Z,6.88
2022-11-19T19:17:24.249Z,7.15
2022-11-19T19:19:53.765Z,7.95
2022-11-19T19:22:23.969Z,9.10
2022-11-19T19:24:57.917Z,6.75
2022-11-19T19:27:28.293Z,8.80
2022-11-19T19:29:58.667Z,6.35
2022-11-19T19:32:29.956Z,7.70
2022-11-19T19:35:00.706Z,7.68
2022-11-19T19:37:29.576Z,6.97
2022-11-19T19:39:58.664Z,7.50
2022-11-19T19:42:29.305Z,7.13
2022-11-19T19:44:58.669Z,6.28
2022-11-19T19:47:28.923Z,6.55
2022-11-19T19:49:58.027Z,8.43
2022-11-19T19:52:26.931Z,6.95
2022-11-19T19:54:55.860Z,8.80
2022-11-19T19:57:24.697Z,6.78
2022-11-19T19:59:53.627Z,7.28
2022-11-19T20:02:22.480Z,7.32
2022-11-19T20:04:52.834Z,7.50
2022-11-19T20:07:21.851Z,6.82
2022-11-19T20:09:50.748Z,6.10
2022-11-19T20:12:19.671Z,6.57
2022-11-19T20:14:49.399Z,6.82
2022-11-19T20:17:18.683Z,7.82
2022-11-19T20:19:47.534Z,7.10
2022-11-19T20:22:18.133Z,5.18
2022-11-19T20:24:47.062Z,7.18
2022-11-19T20:27:15.950Z,6.30
2022-11-19T20:29:44.863Z,7.32
2022-11-19T20:32:13.729Z,7.25
2022-11-19T20:34:42.643Z,6.97
2022-11-19T20:37:11.547Z,7.82
2022-11-19T20:39:42.042Z,7.75
2022-11-19T20:42:28.572Z,8.68
2022-11-19T20:44:57.438Z,9.25
2022-11-19T20:47:26.365Z,7.55
2022-11-19T20:49:55.313Z,7.55
2022-11-19T20:52:24.248Z,9.05
2022-11-19T20:54:54.887Z,7.90
2022-11-19T20:57:24.090Z,9.40
2022-11-19T20:59:52.962Z,8.18
2022-11-19T21:02:22.050Z,9.30
2022-11-19T21:04:51.060Z,7.88
2022-11-19T21:07:20.032Z,7.90
2022-11-19T21:09:48.949Z,8.02
2022-11-19T21:12:19.199Z,9.60
2022-11-19T21:14:48.039Z,8.73
2022-11-19T21:17:16.986Z,7.90
2022-11-19T21:19:45.915Z,10.35
2022-11-19T21:22:15.004Z,9.38
2022-11-19T21:24:43.909Z,9.52
2022-11-19T21:27:12.815Z,8.90
2022-11-19T21:29:45.877Z,8.65
2022-11-19T21:32:15.066Z,8.35
2022-11-19T21:34:43.960Z,9.98
2022-11-19T21:37:12.895Z,7.35
2022-11-19T21:39:41.887Z,10.07
2022-11-19T21:42:13.129Z,10.95
2022-11-19T21:44:43.732Z,8.18
2022-11-19T21:47:14.874Z,10.55
2022-11-19T21:49:43.804Z,8.02
2022-11-19T21:52:12.721Z,9.48
2022-11-19T21:54:41.547Z,9.02
2022-11-19T21:57:10.782Z,10.40
2022-11-19T21:59:39.596Z,8.98
2022-11-19T22:02:12.127Z,8.95
2022-11-19T22:04:41.098Z,9.68
2022-11-19T22:07:10.041Z,8.60
2022-11-19T22:09:38.878Z,10.48
2022-11-19T22:12:08.065Z,8.82
2022-11-19T22:14:39.099Z,7.10
2022-11-19T22:17:12.178Z,8.40
2022-11-19T22:19:53.838Z,10.68
2022-11-19T22:22:25.924Z,7.35
2022-11-19T22:24:54.911Z,8.48
2022-11-19T22:27:23.755Z,9.63
2022-11-19T22:29:56.015Z,9.77
2022-11-19T22:32:26.911Z,8.52
2022-11-19T22:34:55.803Z,9.05
2022-11-19T22:37:24.616Z,9.15
2022-11-19T22:39:53.489Z,8.85
2022-11-19T22:42:22.443Z,8.40
2022-11-19T22:44:54.086Z,8.68
2022-11-19T22:47:24.363Z,8.40
2022-11-19T22:49:54.890Z,9.55
2022-11-19T22:52:23.970Z,9.25
2022-11-19T22:54:52.781Z,8.43
2022-11-19T22:57:21.722Z,7.82
2022-11-19T22:59:50.585Z,9.52
2022-11-19T23:02:19.395Z,8.88
2022-11-19T23:04:48.276Z,9.20
2022-11-19T23:07:18.542Z,8.13
2022-11-19T23:09:59.503Z,9.88
2022-11-19T23:12:46.098Z,7.53
2022-11-19T23:15:15.735Z,8.27
2022-11-19T23:17:45.128Z,8.68
2022-11-19T23:20:20.395Z,8.60
2022-11-19T23:22:51.617Z,8.88
2022-11-19T23:25:20.585Z,8.73
2022-11-19T23:27:49.653Z,8.13
2022-11-19T23:30:18.793Z,9.82
2022-11-19T23:32:48.011Z,9.68
2022-11-19T23:35:17.137Z,8.82
2022-11-19T23:37:46.061Z,10.23
2022-11-19T23:40:16.849Z,11.35
2022-11-19T23:42:49.336Z,9.15
2022-11-19T23:45:20.927Z,8.57
2022-11-19T23:47:49.784Z,10.82
2022-11-19T23:50:18.769Z,8.40
2022-11-19T23:52:47.656Z,8.90
2022-11-19T23:55:18.212Z,9.68
2022-11-19T23:57:47.138Z,8.57
